Time;durP1;ratioP1;P1;durP2;ratioP2;P2;SDS_P1;SDS_P2;PMS_P1;PMS_P2;Temp;Humidity;BMP_temperature;BMP_pressure;BME280_temperature;BME280_humidity;BME280_pressure;Samples;Min_cycle;Max_cycle;Signal;HPM_P1;HPM_P2
2023/10/23 00:00:32;;;;;;;7.60;2.65;;;9.60;1.00;;;;;;4993321;28;20422;-66
2023/10/23 00:02:58;;;;;;;7.17;2.60;;;9.70;1.00;;;;;;4993176;28;22299;-66
2023/10/23 00:05:24;;;;;;;8.15;2.28;;;9.70;1.00;;;;;;4988072;28;20408;-66
2023/10/23 00:07:50;;;;;;;7.67;2.20;;;9.70;1.00;;;;;;4988307;28;20882;-66
2023/10/23 00:10:15;;;;;;;7.70;2.35;;;9.60;1.00;;;;;;4992010;28;20406;-67
2023/10/23 00:12:41;;;;;;;9.30;2.50;;;9.50;1.00;;;;;;4992757;28;20406;-66
2023/10/23 00:15:08;;;;;;;8.73;2.77;;;9.50;1.00;;;;;;4982006;28;20397;-66
2023/10/23 00:17:33;;;;;;;12.60;2.42;;;9.40;1.00;;;;;;4987017;28;20412;-66
2023/10/23 00:20:02;;;;;;;11.10;3.23;;;9.40;1.00;;;;;;4991922;28;20501;-67
2023/10/23 00:22:27;;;;;;;7.40;2.90;;;9.60;1.00;;;;;;4992557;28;20422;-66
2023/10/23 00:24:53;;;;;;;6.37;2.30;;;9.60;1.00;;;;;;4992191;28;21576;-66
2023/10/23 00:27:18;;;;;;;8.57;3.10;;;9.60;1.00;;;;;;4992433;28;20399;-66
2023/10/23 00:29:44;;;;;;;7.30;2.55;;;9.50;1.00;;;;;;4992708;28;20437;-66
2023/10/23 00:32:10;;;;;;;7.00;2.70;;;9.50;1.00;;;;;;4992190;28;20465;-66
2023/10/23 00:34:35;;;;;;;8.77;2.55;;;9.50;1.00;;;;;;4992968;28;20398;-66
2023/10/23 00:37:01;;;;;;;7.23;2.70;;;9.50;1.00;;;;;;4992404;28;20473;-66
2023/10/23 00:39:26;;;;;;;9.00;3.13;;;9.40;1.00;;;;;;4992215;28;20438;-66
2023/10/23 00:41:52;;;;;;;7.65;2.95;;;9.40;1.00;;;;;;4991181;28;20493;-66
2023/10/23 00:44:18;;;;;;;8.70;2.93;;;9.40;1.00;;;;;;4978306;28;20428;-66
2023/10/23 00:46:45;;;;;;;8.65;3.00;;;9.30;1.00;;;;;;4990356;28;20456;-66
2023/10/23 00:49:11;;;;;;;9.05;3.25;;;9.30;1.00;;;;;;4992047;28;20490;-66
2023/10/23 00:51:36;;;;;;;7.70;2.90;;;9.40;1.00;;;;;;4992758;28;20577;-66
2023/10/23 00:54:04;;;;;;;6.50;2.72;;;9.40;1.00;;;;;;4992072;28;20443;-66
2023/10/23 00:56:30;;;;;;;10.00;3.83;;;9.30;1.00;;;;;;4991894;28;20405;-66
2023/10/23 00:58:57;;;;;;;8.70;3.20;;;9.30;1.00;;;;;;4992202;28;20541;-66
2023/10/23 01:01:23;;;;;;;8.15;2.88;;;9.30;1.00;;;;;;4992099;28;20414;-66
2023/10/23 01:03:48;;;;;;;7.90;2.90;;;9.30;1.00;;;;;;4991990;28;20449;-66
2023/10/23 01:06:14;;;;;;;6.27;2.30;;;9.20;1.00;;;;;;4992592;28;20402;-66
2023/10/23 01:08:40;;;;;;;8.35;2.90;;;9.20;1.00;;;;;;4991833;28;20398;-66
2023/10/23 01:11:06;;;;;;;7.38;3.28;;;9.20;1.00;;;;;;4992397;28;20952;-66
2023/10/23 01:13:31;;;;;;;6.70;2.63;;;9.10;1.00;;;;;;4992384;28;20475;-67
2023/10/23 01:15:57;;;;;;;6.50;2.40;;;9.10;1.00;;;;;;4991692;28;20488;-66
2023/10/23 01:18:22;;;;;;;8.00;2.97;;;9.10;1.00;;;;;;4991851;28;20402;-66
2023/10/23 01:20:48;;;;;;;5.35;1.95;;;9.10;1.00;;;;;;4991743;28;20784;-66
2023/10/23 01:23:14;;;;;;;5.70;1.80;;;8.90;1.00;;;;;;4990105;28;20427;-66
2023/10/23 01:25:39;;;;;;;7.10;2.80;;;8.70;1.00;;;;;;4991547;28;20394;-66
2023/10/23 01:28:06;;;;;;;9.48;2.55;;;8.70;1.00;;;;;;4991596;28;20493;-66
2023/10/23 01:30:32;;;;;;;7.15;2.80;;;8.80;1.00;;;;;;4992012;28;20413;-66
2023/10/23 01:32:58;;;;;;;7.07;2.40;;;8.90;1.00;;;;;;4991222;28;20407;-66
2023/10/23 01:35:24;;;;;;;7.65;2.40;;;9.00;1.00;;;;;;4991609;28;20407;-66
2023/10/23 01:37:51;;;;;;;8.10;2.35;;;8.90;1.00;;;;;;4989432;28;20497;-66
2023/10/23 01:40:18;;;;;;;6.72;2.00;;;8.80;1.00;;;;;;4990982;28;20438;-65
2023/10/23 01:42:46;;;;;;;6.30;2.70;;;8.60;1.00;;;;;;4990059;28;20414;-66
2023/10/23 01:45:12;;;;;;;7.17;2.27;;;8.60;1.00;;;;;;4991187;28;20453;-66
2023/10/23 01:47:37;;;;;;;7.53;2.03;;;8.60;1.00;;;;;;4990615;28;20402;-66
2023/10/23 01:50:03;;;;;;;9.47;2.30;;;8.60;1.00;;;;;;4991565;28;20407;-66
2023/10/23 01:52:29;;;;;;;5.43;2.28;;;8.60;1.00;;;;;;4990869;28;20413;-67
2023/10/23 01:54:54;;;;;;;12.77;3.20;;;8.50;1.00;;;;;;4990807;28;20873;-67
2023/10/23 01:57:20;;;;;;;7.22;2.50;;;8.50;1.00;;;;;;4990280;28;20406;-66
2023/10/23 01:59:46;;;;;;;5.70;2.30;;;8.50;1.00;;;;;;4990886;28;20401;-66
2023/10/23 02:02:11;;;;;;;8.55;1.70;;;8.50;1.00;;;;;;4990831;28;20776;-66
2023/10/23 02:04:39;;;;;;;6.80;2.70;;;8.40;1.00;;;;;;4987238;28;20505;-66
2023/10/23 02:07:05;;;;;;;9.35;2.30;;;8.40;1.00;;;;;;4990890;28;20394;-66
2023/10/23 02:09:32;;;;;;;7.63;2.70;;;8.40;1.00;;;;;;4990462;28;20441;-66
2023/10/23 02:11:58;;;;;;;6.72;2.40;;;8.40;1.00;;;;;;4991077;28;20437;-66
2023/10/23 02:14:24;;;;;;;5.83;1.50;;;8.40;1.00;;;;;;4990482;28;20481;-66
2023/10/23 02:16:49;;;;;;;5.95;1.80;;;8.40;1.00;;;;;;4990585;28;20490;-66
2023/10/23 02:19:15;;;;;;;8.27;2.60;;;8.50;1.00;;;;;;4990026;28;20517;-66
2023/10/23 02:21:44;;;;;;;6.22;1.98;;;8.50;1.00;;;;;;4990514;28;20917;-66
2023/10/23 02:24:10;;;;;;;5.60;1.70;;;8.50;1.00;;;;;;4990142;28;20877;-66
2023/10/23 02:26:36;;;;;;;6.70;2.27;;;8.50;1.00;;;;;;4991119;28;20405;-66
2023/10/23 02:29:01;;;;;;;5.30;1.70;;;8.40;1.00;;;;;;4990553;28;20389;-66
2023/10/23 02:31:27;;;;;;;7.27;2.67;;;8.30;1.00;;;;;;4988066;28;20742;-66
2023/10/23 02:33:52;;;;;;;8.00;3.50;;;8.30;1.00;;;;;;4989809;28;20464;-66
2023/10/23 02:36:18;;;;;;;6.35;1.65;;;8.20;1.00;;;;;;4989615;28;20496;-67
2023/10/23 02:38:44;;;;;;;6.80;2.03;;;8.20;1.00;;;;;;4989362;28;20908;-66
2023/10/23 02:41:09;;;;;;;6.20;2.10;;;8.10;1.00;;;;;;4989626;28;20452;-67
2023/10/23 02:43:36;;;;;;;5.45;2.10;;;8.10;1.00;;;;;;4989907;28;20433;-67
2023/10/23 02:46:02;;;;;;;6.63;2.00;;;8.00;1.00;;;;;;4989707;28;20395;-67
2023/10/23 02:48:28;;;;;;;11.30;2.38;;;8.00;1.00;;;;;;4989772;28;20403;-67
2023/10/23 02:50:55;;;;;;;5.27;1.70;;;7.90;1.00;;;;;;4990011;28;20402;-67
2023/10/23 02:53:21;;;;;;;6.63;2.50;;;8.00;1.00;;;;;;4989991;28;20445;-67
2023/10/23 02:55:47;;;;;;;6.25;2.40;;;8.10;1.00;;;;;;4989926;28;20477;-67
2023/10/23 02:58:13;;;;;;;7.40;2.00;;;8.10;1.00;;;;;;4990102;28;20398;-67
2023/10/23 03:00:39;;;;;;;6.72;2.17;;;8.00;1.00;;;;;;4989209;28;20399;-67
2023/10/23 03:03:05;;;;;;;4.70;1.40;;;7.90;1.00;;;;;;4990420;28;20418;-67
2023/10/23 03:05:31;;;;;;;6.43;2.30;;;7.90;1.00;;;;;;4987886;28;20897;-66
2023/10/23 03:07:57;;;;;;;6.65;2.40;;;7.90;1.00;;;;;;4989367;28;20465;-67
2023/10/23 03:10:23;;;;;;;6.43;2.10;;;7.90;1.00;;;;;;4989292;28;20486;-66
2023/10/23 03:12:48;;;;;;;8.70;2.90;;;7.90;1.00;;;;;;4989487;28;20394;-66
2023/10/23 03:15:16;;;;;;;9.53;2.03;;;8.00;1.00;;;;;;4990126;28;20761;-66
2023/10/23 03:17:42;;;;;;;9.15;3.20;;;8.00;1.00;;;;;;4990186;28;20422;-66
2023/10/23 03:20:08;;;;;;;7.10;1.83;;;8.00;1.00;;;;;;4989041;28;20434;-66
2023/10/23 03:22:34;;;;;;;6.18;2.60;;;8.00;1.00;;;;;;4989765;28;20449;-66
2023/10/23 03:25:00;;;;;;;5.82;2.42;;;7.90;1.00;;;;;;4989750;28;20406;-67
2023/10/23 03:27:26;;;;;;;8.30;2.83;;;7.90;1.00;;;;;;4977899;28;20402;-66
2023/10/23 03:29:51;;;;;;;8.02;2.88;;;7.90;1.00;;;;;;4978705;28;20465;-66
2023/10/23 03:32:17;;;;;;;6.77;2.47;;;7.90;1.00;;;;;;4988950;28;20433;-66
2023/10/23 03:34:44;;;;;;;6.60;2.58;;;7.90;1.00;;;;;;4988943;28;20399;-66
2023/10/23 03:37:09;;;;;;;5.80;1.83;;;7.80;1.00;;;;;;4988651;28;20454;-66
2023/10/23 03:39:35;;;;;;;5.63;2.10;;;7.90;1.00;;;;;;4988475;28;20501;-66
2023/10/23 03:42:01;;;;;;;7.80;3.13;;;7.90;1.00;;;;;;4988677;28;20410;-66
2023/10/23 03:44:27;;;;;;;6.72;2.42;;;7.80;1.00;;;;;;4987591;28;20426;-66
2023/10/23 03:46:52;;;;;;;10.07;2.27;;;7.80;1.00;;;;;;4989403;28;20420;-66
2023/10/23 03:49:18;;;;;;;5.70;2.50;;;7.70;1.00;;;;;;4989072;28;20482;-66
2023/10/23 03:51:43;;;;;;;10.10;2.70;;;7.60;1.00;;;;;;4989543;28;21022;-65
2023/10/23 03:54:09;;;;;;;6.38;2.00;;;7.50;1.00;;;;;;4988175;28;20414;-66
2023/10/23 03:56:34;;;;;;;6.80;2.10;;;7.50;1.00;;;;;;4989686;28;20865;-66
2023/10/23 03:59:00;;;;;;;5.80;2.00;;;7.50;1.00;;;;;;4979456;28;20418;-66
2023/10/23 04:01:26;;;;;;;8.90;3.10;;;7.40;1.00;;;;;;4970378;28;20396;-66
2023/10/23 04:03:52;;;;;;;5.10;1.80;;;7.50;1.00;;;;;;4979183;28;20781;-66
2023/10/23 04:06:18;;;;;;;6.95;2.22;;;7.50;1.00;;;;;;4988601;28;20402;-66
2023/10/23 04:08:43;;;;;;;7.20;2.50;;;7.40;1.00;;;;;;4987559;28;20414;-66
2023/10/23 04:11:13;;;;;;;8.10;2.97;;;7.20;1.00;;;;;;4990092;28;20394;-66
2023/10/23 04:13:38;;;;;;;10.18;3.80;;;7.30;1.00;;;;;;4991075;28;20899;-66
2023/10/23 04:16:04;;;;;;;10.10;2.40;;;7.50;1.00;;;;;;4992653;28;20418;-66
2023/10/23 04:18:30;;;;;;;9.10;3.35;;;7.70;1.00;;;;;;4991953;28;20406;-67
2023/10/23 04:21:02;;;;;;;6.43;2.40;;;7.70;1.00;;;;;;4991766;28;20931;-66
2023/10/23 04:23:28;;;;;;;5.43;1.98;;;7.70;1.00;;;;;;4990477;28;20423;-67
2023/10/23 04:25:54;;;;;;;7.37;2.70;;;7.70;1.00;;;;;;4991795;28;20410;-65
2023/10/23 04:28:21;;;;;;;8.10;2.30;;;7.60;1.00;;;;;;4991131;28;20411;-66
2023/10/23 04:30:46;;;;;;;8.98;3.22;;;7.60;1.00;;;;;;4991161;28;20488;-66
2023/10/23 04:33:12;;;;;;;10.20;2.60;;;7.50;1.00;;;;;;4992149;28;20869;-66
2023/10/23 04:35:37;;;;;;;7.38;2.50;;;7.50;1.00;;;;;;4991182;28;20773;-66
2023/10/23 04:38:03;;;;;;;9.30;3.20;;;7.60;1.00;;;;;;4990910;28;20797;-65
2023/10/23 04:40:28;;;;;;;8.50;2.20;;;7.50;1.00;;;;;;4994535;28;20803;-70
2023/10/23 04:42:54;;;;;;;5.60;1.92;;;7.50;1.00;;;;;;4992378;28;20916;-67
2023/10/23 04:45:19;;;;;;;7.57;2.50;;;7.50;1.00;;;;;;4997903;28;20474;-66
2023/10/23 04:47:45;;;;;;;8.68;2.03;;;7.40;1.00;;;;;;4989580;28;20775;-67
2023/10/23 04:50:12;;;;;;;5.90;2.30;;;7.40;1.00;;;;;;4988117;28;20769;-68
2023/10/23 04:52:39;;;;;;;6.50;2.55;;;7.40;1.00;;;;;;4991516;28;20410;-66
2023/10/23 04:55:05;;;;;;;7.20;2.42;;;7.40;1.00;;;;;;4990586;28;20442;-67
2023/10/23 04:57:31;;;;;;;7.43;2.25;;;7.40;1.00;;;;;;4994042;28;20486;-66
2023/10/23 04:59:56;;;;;;;6.13;2.20;;;7.50;1.00;;;;;;4993525;28;20419;-66
2023/10/23 05:02:22;;;;;;;4.83;1.60;;;7.50;1.00;;;;;;4992951;28;20497;-66
2023/10/23 05:04:48;;;;;;;5.60;2.20;;;7.40;1.00;;;;;;4993404;28;20431;-67
2023/10/23 05:07:14;;;;;;;8.23;2.47;;;7.50;1.00;;;;;;4991667;28;20497;-66
2023/10/23 05:09:40;;;;;;;6.05;2.33;;;7.40;1.00;;;;;;4983271;28;20895;-66
2023/10/23 05:12:06;;;;;;;7.25;2.42;;;7.40;1.00;;;;;;4994403;28;20410;-70
2023/10/23 05:14:33;;;;;;;5.75;2.03;;;7.30;1.00;;;;;;4994703;28;20398;-66
2023/10/23 05:16:59;;;;;;;5.30;1.73;;;7.40;1.00;;;;;;4993920;28;20395;-66
2023/10/23 05:19:25;;;;;;;6.13;2.10;;;7.40;1.00;;;;;;4992334;28;20722;-66
2023/10/23 05:21:50;;;;;;;11.45;3.30;;;7.50;1.00;;;;;;4992046;28;20398;-66
2023/10/23 05:24:16;;;;;;;6.03;2.33;;;7.50;1.00;;;;;;4987488;28;20459;-66
2023/10/23 05:26:41;;;;;;;12.32;2.50;;;7.60;1.00;;;;;;4992307;28;20785;-66
2023/10/23 05:29:07;;;;;;;5.83;2.33;;;7.60;1.00;;;;;;4991823;28;20391;-66
2023/10/23 05:31:33;;;;;;;9.07;2.20;;;7.50;1.00;;;;;;4992494;28;20402;-66
2023/10/23 05:33:58;;;;;;;6.18;2.20;;;7.40;1.00;;;;;;4990794;28;20406;-66
2023/10/23 05:36:24;;;;;;;6.40;2.30;;;7.40;1.00;;;;;;4992243;28;20391;-67
2023/10/23 05:38:49;;;;;;;6.18;2.70;;;7.40;1.00;;;;;;4991671;28;20391;-67
2023/10/23 05:41:15;;;;;;;6.70;2.60;;;7.40;1.00;;;;;;4991592;28;20466;-67
2023/10/23 05:43:41;;;;;;;7.18;2.85;;;7.40;1.00;;;;;;4990193;28;20419;-66
2023/10/23 05:46:07;;;;;;;6.50;1.80;;;7.40;1.00;;;;;;4992974;28;20389;-66
2023/10/23 05:48:33;;;;;;;9.18;2.60;;;7.50;1.00;;;;;;4990890;28;20804;-66
2023/10/23 05:51:03;;;;;;;6.75;2.30;;;7.40;1.00;;;;;;4991267;28;20773;-66
2023/10/23 05:53:29;;;;;;;7.32;2.53;;;7.60;1.00;;;;;;4991329;28;20403;-67
2023/10/23 05:56:02;;;;;;;7.70;2.80;;;7.50;1.00;;;;;;4990979;28;20438;-66
2023/10/23 05:58:28;;;;;;;6.55;2.83;;;7.60;1.00;;;;;;4990813;28;20473;-66
2023/10/23 06:00:53;;;;;;;7.57;2.63;;;7.50;1.00;;;;;;4991077;28;20853;-66
2023/10/23 06:03:19;;;;;;;7.37;2.83;;;7.50;1.00;;;;;;4989806;28;20440;-67
2023/10/23 06:05:44;;;;;;;6.05;2.10;;;7.50;1.00;;;;;;4986805;28;20414;-66
2023/10/23 06:08:10;;;;;;;8.50;2.57;;;7.50;1.00;;;;;;4986481;28;20434;-66
2023/10/23 06:10:45;;;;;;;8.30;2.60;;;7.50;1.00;;;;;;4983741;28;20476;-66
2023/10/23 06:13:14;;;;;;;10.65;2.60;;;7.50;1.00;;;;;;4977799;28;20402;-66
2023/10/23 06:15:39;;;;;;;6.70;2.50;;;7.60;1.00;;;;;;4972342;28;20388;-66
2023/10/23 06:18:06;;;;;;;6.40;2.25;;;7.80;1.00;;;;;;4991485;28;20399;-66
2023/10/23 06:20:32;;;;;;;10.65;3.10;;;7.90;1.00;;;;;;4991585;28;20414;-66
2023/10/23 06:22:59;;;;;;;6.30;2.30;;;8.00;1.00;;;;;;4990944;28;20425;-66
2023/10/23 06:25:24;;;;;;;6.67;2.50;;;7.90;1.00;;;;;;4981832;28;20903;-66
2023/10/23 06:27:50;;;;;;;8.30;3.08;;;8.00;1.00;;;;;;4971758;28;20395;-66
2023/10/23 06:30:15;;;;;;;9.93;2.87;;;8.20;1.00;;;;;;4971552;28;20400;-66
2023/10/23 06:32:41;;;;;;;12.77;3.30;;;8.20;1.00;;;;;;4971800;28;20411;-66
2023/10/23 06:35:07;;;;;;;8.80;3.40;;;8.30;1.00;;;;;;4972078;28;20400;-66
2023/10/23 06:37:32;;;;;;;9.40;4.55;;;8.40;1.00;;;;;;4972079;28;20484;-67
2023/10/23 06:39:58;;;;;;;7.13;3.00;;;8.50;1.00;;;;;;4972130;28;20495;-67
2023/10/23 06:42:27;;;;;;;6.60;2.70;;;8.80;1.00;;;;;;4980166;28;20403;-66
2023/10/23 06:44:52;;;;;;;8.85;3.88;;;9.10;1.00;;;;;;4990960;28;20419;-66
2023/10/23 06:47:18;;;;;;;9.50;3.70;;;9.90;1.00;;;;;;4991498;28;20394;-68
2023/10/23 06:49:44;;;;;;;7.25;3.20;;;10.50;1.00;;;;;;4990700;28;20470;-69
2023/10/23 06:52:10;;;;;;;7.70;2.92;;;10.90;1.00;;;;;;4991179;28;20402;-67
2023/10/23 06:54:35;;;;;;;9.73;3.45;;;11.40;99.90;;;;;;4991403;28;21052;-67
2023/10/23 06:57:06;;;;;;;8.90;3.13;;;11.80;99.90;;;;;;4990873;28;20892;-67
2023/10/23 06:59:31;;;;;;;6.50;2.53;;;11.80;1.00;;;;;;4990644;28;20497;-67
2023/10/23 07:01:57;;;;;;;7.97;3.17;;;11.70;99.90;;;;;;4990638;28;20458;-67
2023/10/23 07:04:22;;;;;;;9.97;2.87;;;11.60;99.90;;;;;;4990275;28;20484;-66
2023/10/23 07:06:48;;;;;;;11.65;3.13;;;11.40;99.90;;;;;;4990695;28;20481;-67
2023/10/23 07:09:13;;;;;;;8.00;2.78;;;11.20;1.00;;;;;;4990490;28;20877;-67
2023/10/23 07:11:39;;;;;;;8.33;2.63;;;11.10;1.00;;;;;;4990494;28;20390;-67
2023/10/23 07:14:04;;;;;;;7.83;3.50;;;10.80;1.00;;;;;;4990917;28;20445;-66
2023/10/23 07:16:30;;;;;;;7.55;2.80;;;10.70;99.90;;;;;;4981481;28;20404;-67
2023/10/23 07:18:55;;;;;;;11.10;3.73;;;10.60;1.00;;;;;;4971183;28;20755;-67
2023/10/23 07:21:23;;;;;;;14.90;3.83;;;10.40;1.00;;;;;;4971233;28;20514;-67
2023/10/23 07:23:49;;;;;;;10.23;2.93;;;10.30;1.00;;;;;;4969635;28;20926;-67
2023/10/23 07:26:14;;;;;;;9.50;3.03;;;10.30;99.90;;;;;;4970967;28;20475;-67
2023/10/23 07:28:41;;;;;;;7.78;3.00;;;10.50;38.90;;;;;;4970870;28;20404;-67
2023/10/23 07:31:08;;;;;;;10.52;2.47;;;10.40;99.90;;;;;;4971019;28;20396;-67
2023/10/23 07:33:34;;;;;;;8.20;2.65;;;10.30;1.00;;;;;;4971031;28;20403;-67
2023/10/23 07:36:05;;;;;;;8.40;2.90;;;10.20;99.90;;;;;;4970918;28;20397;-67
2023/10/23 07:38:31;;;;;;;7.78;2.42;;;10.20;99.90;;;;;;4971007;28;20754;-67
2023/10/23 07:40:57;;;;;;;13.65;3.05;;;10.30;99.90;;;;;;4970900;28;21046;-67
2023/10/23 07:43:24;;;;;;;8.07;2.95;;;10.40;99.90;;;;;;4971094;28;20416;-67
2023/10/23 07:45:50;;;;;;;8.70;2.72;;;10.40;99.90;;;;;;4971049;28;20388;-67
2023/10/23 07:48:16;;;;;;;11.87;3.30;;;10.60;99.90;;;;;;4974389;28;20969;-67
2023/10/23 07:50:42;;;;;;;9.20;3.10;;;10.80;79.60;;;;;;4974490;28;20400;-67
2023/10/23 07:53:08;;;;;;;7.03;3.17;;;10.80;99.90;;;;;;4973544;28;20447;-67
2023/10/23 07:55:33;;;;;;;10.50;2.17;;;10.80;99.90;;;;;;4975078;28;20803;-67
2023/10/23 07:58:00;;;;;;;7.03;2.20;;;10.80;99.90;;;;;;4974630;28;20487;-67
2023/10/23 08:00:27;;;;;;;6.30;2.40;;;11.00;99.90;;;;;;4974169;28;20385;-67
2023/10/23 08:02:53;;;;;;;6.10;2.30;;;11.10;99.90;;;;;;4974126;28;20406;-67
2023/10/23 08:05:18;;;;;;;5.83;2.10;;;11.30;99.90;;;;;;4973742;28;20380;-67
2023/10/23 08:07:44;;;;;;;6.60;2.00;;;11.50;99.90;;;;;;4974181;28;21195;-67
2023/10/23 08:10:09;;;;;;;7.68;2.45;;;11.50;1.00;;;;;;4974124;28;20423;-67
2023/10/23 08:12:35;;;;;;;8.10;2.90;;;11.50;1.00;;;;;;4973062;28;20392;-67
2023/10/23 08:15:00;;;;;;;6.37;2.63;;;11.60;1.00;;;;;;4973513;28;20424;-67
2023/10/23 08:17:26;;;;;;;6.13;2.25;;;11.60;99.90;;;;;;4989458;28;20462;-67
2023/10/23 08:19:51;;;;;;;7.23;2.77;;;11.60;99.90;;;;;;4993205;28;20414;-67
2023/10/23 08:22:17;;;;;;;8.60;2.40;;;11.60;99.90;;;;;;4994112;28;20399;-67
2023/10/23 08:24:42;;;;;;;9.27;2.10;;;11.60;53.90;;;;;;4993802;28;20469;-67
2023/10/23 08:27:08;;;;;;;9.35;1.88;;;11.50;12.40;;;;;;4993884;28;20445;-67
2023/10/23 08:29:33;;;;;;;6.95;2.58;;;11.50;99.90;;;;;;4993963;28;20422;-67
2023/10/23 08:31:59;;;;;;;8.03;2.20;;;11.30;99.90;;;;;;4993683;28;20884;-67
2023/10/23 08:34:25;;;;;;;9.10;2.80;;;11.50;99.90;;;;;;4993619;28;20373;-68
2023/10/23 08:36:51;;;;;;;6.77;2.27;;;11.60;99.90;;;;;;4993447;28;21109;-68
2023/10/23 08:39:19;;;;;;;6.93;2.03;;;11.60;1.00;;;;;;4993033;28;20406;-66
2023/10/23 08:41:45;;;;;;;8.57;2.30;;;11.60;99.90;;;;;;4992115;28;20410;-66
2023/10/23 08:44:11;;;;;;;6.68;2.05;;;11.60;99.90;;;;;;4992928;28;20450;-67
2023/10/23 08:46:39;;;;;;;9.90;2.27;;;11.70;99.90;;;;;;4993722;28;20387;-66
2023/10/23 08:49:04;;;;;;;6.28;2.33;;;11.60;99.90;;;;;;4993668;28;20543;-67
2023/10/23 08:51:31;;;;;;;6.30;2.20;;;11.60;99.90;;;;;;4992101;28;20792;-67
2023/10/23 08:54:06;;;;;;;9.18;2.42;;;11.70;99.90;;;;;;4991967;28;20816;-68
2023/10/23 08:56:39;;;;;;;5.75;2.08;;;11.80;99.90;;;;;;4992948;28;20409;-67
2023/10/23 08:59:08;;;;;;;7.07;2.50;;;11.90;99.90;;;;;;4992436;28;20393;-67
2023/10/23 09:01:34;;;;;;;11.65;2.75;;;12.10;99.90;;;;;;4991585;28;20485;-67
2023/10/23 09:04:02;;;;;;;8.18;2.67;;;12.00;99.90;;;;;;4991398;28;20796;-68
2023/10/23 09:06:27;;;;;;;8.25;2.67;;;12.10;96.80;;;;;;4992943;28;20404;-68
2023/10/23 09:08:54;;;;;;;5.80;2.10;;;12.00;1.00;;;;;;4992749;28;20457;-65
2023/10/23 09:11:22;;;;;;;8.18;2.10;;;12.20;1.00;;;;;;4992977;28;20397;-66
2023/10/23 09:13:47;;;;;;;6.22;2.38;;;12.40;1.00;;;;;;4992865;28;20403;-67
2023/10/23 09:16:13;;;;;;;6.85;1.98;;;12.70;99.90;;;;;;4986399;28;20415;-67
2023/10/23 09:18:46;;;;;;;8.60;2.70;;;12.90;99.90;;;;;;4973225;28;20906;-66
2023/10/23 09:21:12;;;;;;;7.43;2.20;;;13.00;1.00;;;;;;4972851;28;20412;-67
2023/10/23 09:23:50;;;;;;;5.57;2.00;;;13.00;1.00;;;;;;4973224;28;20503;-67
2023/10/23 09:26:16;;;;;;;9.57;2.63;;;13.00;1.00;;;;;;4972509;28;20407;-67
2023/10/23 09:28:41;;;;;;;8.10;3.17;;;12.90;1.00;;;;;;4972775;28;20411;-66
2023/10/23 09:31:08;;;;;;;6.50;2.60;;;12.90;2.70;;;;;;4973062;28;20423;-66
2023/10/23 09:33:34;;;;;;;10.40;3.05;;;12.80;99.90;;;;;;4972236;28;20404;-67
2023/10/23 09:36:01;;;;;;;7.50;2.40;;;13.10;93.80;;;;;;4972785;28;20751;-66
2023/10/23 09:38:27;;;;;;;5.90;2.10;;;13.10;1.00;;;;;;4973365;28;20404;-67
2023/10/23 09:40:56;;;;;;;8.27;2.33;;;13.00;13.10;;;;;;4972434;28;20408;-67
2023/10/23 09:43:23;;;;;;;7.10;2.47;;;13.10;1.00;;;;;;4971645;28;20977;-66
2023/10/23 09:45:51;;;;;;;6.40;2.23;;;13.10;1.00;;;;;;4973064;28;20426;-66
2023/10/23 09:48:18;;;;;;;6.45;2.33;;;13.00;1.00;;;;;;4972662;28;20400;-66
2023/10/23 09:50:47;;;;;;;7.13;2.20;;;13.00;1.00;;;;;;4972590;28;20911;-66
2023/10/23 09:53:15;;;;;;;8.68;2.83;;;13.00;1.00;;;;;;4972357;28;20475;-67
2023/10/23 09:55:43;;;;;;;6.20;2.27;;;13.10;1.00;;;;;;4971956;28;20502;-67
2023/10/23 09:58:14;;;;;;;11.65;2.70;;;13.20;1.00;;;;;;4972582;28;20407;-66
2023/10/23 10:00:44;;;;;;;11.20;2.90;;;13.20;1.00;;;;;;4972659;28;20743;-66
2023/10/23 10:03:12;;;;;;;7.10;2.20;;;13.10;1.00;;;;;;4972356;28;20771;-66
2023/10/23 10:06:07;;;;;;;10.07;2.58;;;13.20;1.00;;;;;;4973170;28;20384;-66
2023/10/23 10:08:37;;;;;;;6.50;2.50;;;13.40;1.00;;;;;;4973133;28;20455;-66
2023/10/23 10:11:05;;;;;;;8.48;2.85;;;13.40;1.00;;;;;;4974355;28;20434;-67
2023/10/23 10:13:31;;;;;;;6.70;2.78;;;13.40;1.00;;;;;;4973146;28;20404;-66
2023/10/23 10:15:58;;;;;;;9.50;1.90;;;13.40;1.00;;;;;;4977169;28;20437;-66
2023/10/23 10:18:23;;;;;;;7.07;2.33;;;13.40;1.00;;;;;;4993460;28;20441;-67
2023/10/23 10:20:57;;;;;;;6.87;2.17;;;13.40;1.00;;;;;;4995561;28;20418;-66
2023/10/23 10:23:23;;;;;;;7.25;2.55;;;13.40;1.00;;;;;;4996462;28;20485;-67
2023/10/23 10:25:49;;;;;;;6.15;1.95;;;13.50;1.00;;;;;;4996546;28;20386;-66
2023/10/23 10:28:14;;;;;;;8.90;3.63;;;13.60;1.00;;;;;;4994559;28;20411;-66
2023/10/23 10:30:43;;;;;;;7.60;2.40;;;13.50;1.00;;;;;;4992302;28;20394;-66
2023/10/23 10:33:30;;;;;;;7.63;2.40;;;13.60;99.90;;;;;;4993965;28;20430;-66
2023/10/23 10:35:59;;;;;;;9.70;2.55;;;13.60;99.90;;;;;;4994096;28;20436;-66
2023/10/23 10:38:27;;;;;;;7.32;2.58;;;13.70;99.90;;;;;;4994622;28;20486;-67
2023/10/23 10:41:03;;;;;;;12.00;2.85;;;13.70;99.90;;;;;;4992685;28;20855;-67
2023/10/23 10:43:34;;;;;;;7.60;2.38;;;13.70;99.90;;;;;;4993710;28;20510;-67
2023/10/23 10:46:02;;;;;;;10.40;3.10;;;13.80;99.90;;;;;;4995361;28;20465;-68
2023/10/23 10:48:44;;;;;;;8.30;3.00;;;13.90;99.90;;;;;;4988348;28;20422;-67
2023/10/23 10:51:13;;;;;;;8.80;2.60;;;14.10;99.90;;;;;;4989338;28;20406;-67
2023/10/23 10:53:40;;;;;;;9.68;2.63;;;14.20;99.90;;;;;;4994044;28;20449;-66
2023/10/23 10:56:08;;;;;;;7.43;2.65;;;14.00;99.90;;;;;;4994679;28;20789;-67
2023/10/23 10:58:36;;;;;;;6.33;2.53;;;13.90;99.90;;;;;;4993793;28;20414;-67
2023/10/23 11:01:02;;;;;;;6.68;2.15;;;13.90;99.90;;;;;;4992013;28;20426;-67
2023/10/23 11:03:32;;;;;;;7.80;2.35;;;13.90;99.90;;;;;;4993469;28;20920;-68
2023/10/23 11:05:58;;;;;;;5.43;1.83;;;14.10;99.90;;;;;;4990692;28;20505;-67
2023/10/23 11:08:23;;;;;;;6.03;1.80;;;14.10;99.90;;;;;;4984515;28;20553;-67
2023/10/23 11:10:49;;;;;;;6.90;1.90;;;14.10;99.90;;;;;;4981470;28;20502;-67
2023/10/23 11:13:15;;;;;;;5.93;1.50;;;14.10;99.90;;;;;;4978430;28;20399;-67
2023/10/23 11:15:44;;;;;;;6.97;1.50;;;14.00;99.90;;;;;;4978110;28;20392;-67
2023/10/23 11:18:10;;;;;;;6.18;1.83;;;13.90;99.90;;;;;;4983801;28;20415;-67
2023/10/23 11:20:36;;;;;;;5.80;1.70;;;14.00;99.90;;;;;;4981115;28;20418;-68
2023/10/23 11:23:01;;;;;;;8.50;2.50;;;14.00;99.90;;;;;;4989485;28;20504;-67
2023/10/23 11:25:28;;;;;;;7.18;2.20;;;14.00;99.90;;;;;;4987940;28;20418;-67
2023/10/23 11:27:54;;;;;;;7.30;2.58;;;14.10;99.90;;;;;;4989008;28;20398;-67
2023/10/23 11:30:27;;;;;;;6.07;2.00;;;14.10;99.90;;;;;;4990606;28;20839;-67
2023/10/23 11:32:53;;;;;;;6.28;2.28;;;14.20;99.90;;;;;;4990276;28;20403;-67
2023/10/23 11:35:18;;;;;;;7.60;2.00;;;14.30;99.90;;;;;;4989860;28;20893;-68
2023/10/23 11:37:44;;;;;;;5.60;2.17;;;14.30;99.90;;;;;;4987636;28;20402;-67
2023/10/23 11:40:11;;;;;;;6.00;2.20;;;14.30;99.90;;;;;;4971170;28;20404;-67
2023/10/23 11:42:48;;;;;;;5.47;1.90;;;14.40;99.90;;;;;;4974977;28;20753;-67
2023/10/23 11:45:17;;;;;;;6.15;1.73;;;14.40;99.90;;;;;;4985561;28;20476;-67
2023/10/23 11:47:43;;;;;;;6.05;1.90;;;14.40;99.90;;;;;;4990227;28;20622;-67
2023/10/23 11:50:13;;;;;;;6.95;2.13;;;14.50;99.90;;;;;;4970021;28;20728;-67
2023/10/23 11:52:44;;;;;;;7.10;1.87;;;14.70;99.90;;;;;;4970859;28;20399;-67
2023/10/23 11:55:19;;;;;;;5.50;1.70;;;14.80;99.90;;;;;;4979265;28;20429;-68
2023/10/23 11:57:46;;;;;;;6.13;1.70;;;14.90;99.90;;;;;;4989848;28;20865;-68
2023/10/23 12:00:14;;;;;;;7.80;2.50;;;15.00;99.90;;;;;;4990612;28;20386;-68
2023/10/23 12:02:44;;;;;;;7.55;2.00;;;15.10;97.90;;;;;;4990312;28;20398;-67
2023/10/23 12:05:12;;;;;;;5.47;2.08;;;15.10;95.00;;;;;;4988155;28;20422;-66
2023/10/23 12:07:52;;;;;;;5.50;1.40;;;15.10;99.90;;;;;;4988320;28;20407;-66
2023/10/23 12:10:24;;;;;;;7.95;2.20;;;15.00;90.10;;;;;;4974717;28;20400;-66
2023/10/23 12:12:54;;;;;;;6.63;2.22;;;14.90;98.30;;;;;;4970088;28;20404;-67
2023/10/23 12:15:23;;;;;;;7.80;1.70;;;15.00;97.90;;;;;;4983663;28;20421;-66
2023/10/23 12:17:49;;;;;;;6.90;2.00;;;14.90;96.90;;;;;;4982906;28;20409;-68
2023/10/23 12:20:16;;;;;;;6.53;2.00;;;14.90;99.90;;;;;;4987967;28;20770;-68
2023/10/23 12:22:44;;;;;;;7.40;1.70;;;14.80;99.90;;;;;;4990226;28;20485;-68
2023/10/23 12:25:10;;;;;;;6.75;2.10;;;14.80;99.90;;;;;;4988153;28;20418;-67
2023/10/23 12:27:37;;;;;;;6.90;2.25;;;14.70;99.90;;;;;;4990730;28;20402;-67
2023/10/23 12:30:04;;;;;;;7.82;3.05;;;14.70;99.90;;;;;;4990728;28;20382;-66
2023/10/23 12:32:30;;;;;;;6.55;2.40;;;14.60;99.90;;;;;;4991028;28;20403;-66
2023/10/23 12:34:59;;;;;;;8.77;2.67;;;14.60;99.90;;;;;;4992376;28;20869;-66
2023/10/23 12:37:29;;;;;;;8.20;2.97;;;14.40;99.90;;;;;;4993492;28;20453;-66
2023/10/23 12:39:56;;;;;;;6.70;2.50;;;14.40;1.00;;;;;;4993749;28;20418;-66
2023/10/23 12:42:22;;;;;;;9.32;3.25;;;14.50;99.90;;;;;;4993276;28;20733;-66
2023/10/23 12:44:49;;;;;;;7.57;2.97;;;14.50;99.90;;;;;;4992534;28;20418;-67
2023/10/23 12:47:15;;;;;;;8.48;2.75;;;14.40;99.90;;;;;;4992525;28;20912;-67
2023/10/23 12:49:42;;;;;;;8.32;2.70;;;14.40;1.00;;;;;;4992543;28;20473;-67
2023/10/23 12:52:08;;;;;;;6.35;2.53;;;14.20;1.00;;;;;;4992932;28;20437;-67
2023/10/23 12:54:33;;;;;;;6.63;2.40;;;14.20;99.90;;;;;;4993380;28;20406;-67